sensor_id;sensor_type;location;lat;lon;timestamp;pressure;altitude;pressure_sealevel;temperature
69785;BMP280;14177;51.520;6.764;2023-10-19T00:00:42;99177.09;;;12.05
69785;BMP280;14177;51.520;6.764;2023-10-19T00:03:12;99173.38;;;12.09
69785;BMP280;14177;51.520;6.764;2023-10-19T00:05:40;99181.00;;;12.12
69785;BMP280;14177;51.520;6.764;2023-10-19T00:08:08;99179.22;;;12.12
69785;BMP280;14177;51.520;6.764;2023-10-19T00:10:47;99174.84;;;12.13
69785;BMP280;14177;51.520;6.764;2023-10-19T00:13:17;99171.22;;;12.15
69785;BMP280;14177;51.520;6.764;2023-10-19T00:15:46;99160.59;;;12.18
69785;BMP280;14177;51.520;6.764;2023-10-19T00:18:20;99164.81;;;12.21
69785;BMP280;14177;51.520;6.764;2023-10-19T00:20:51;99168.16;;;12.23
69785;BMP280;14177;51.520;6.764;2023-10-19T00:23:23;99157.63;;;12.24
69785;BMP280;14177;51.520;6.764;2023-10-19T00:26:00;99162.56;;;12.29
69785;BMP280;14177;51.520;6.764;2023-10-19T00:28:35;99157.25;;;12.30
69785;BMP280;14177;51.520;6.764;2023-10-19T00:31:03;99158.84;;;12.33
69785;BMP280;14177;51.520;6.764;2023-10-19T00:33:35;99146.56;;;12.35
69785;BMP280;14177;51.520;6.764;2023-10-19T00:36:08;99143.03;;;12.36
69785;BMP280;14177;51.520;6.764;2023-10-19T00:38:40;99149.78;;;12.38
69785;BMP280;14177;51.520;6.764;2023-10-19T00:41:22;99152.19;;;12.41
69785;BMP280;14177;51.520;6.764;2023-10-19T00:43:58;99149.50;;;12.43
69785;BMP280;14177;51.520;6.764;2023-10-19T00:46:39;99133.78;;;12.44
69785;BMP280;14177;51.520;6.764;2023-10-19T00:49:13;99136.94;;;12.49
69785;BMP280;14177;51.520;6.764;2023-10-19T00:51:44;99137.66;;;12.51
69785;BMP280;14177;51.520;6.764;2023-10-19T00:54:33;99144.44;;;12.54
69785;BMP280;14177;51.520;6.764;2023-10-19T00:57:04;99139.16;;;12.55
69785;BMP280;14177;51.520;6.764;2023-10-19T00:59:41;99132.88;;;12.58
69785;BMP280;14177;51.520;6.764;2023-10-19T01:02:14;99139.69;;;12.60
69785;BMP280;14177;51.520;6.764;2023-10-19T01:04:48;99142.09;;;12.63
69785;BMP280;14177;51.520;6.764;2023-10-19T01:07:31;99143.66;;;12.66
69785;BMP280;14177;51.520;6.764;2023-10-19T01:10:06;99139.84;;;12.71
69785;BMP280;14177;51.520;6.764;2023-10-19T01:12:47;99132.84;;;12.72
69785;BMP280;14177;51.520;6.764;2023-10-19T01:15:16;99137.22;;;12.71
69785;BMP280;14177;51.520;6.764;2023-10-19T01:17:50;99133.56;;;12.74
69785;BMP280;14177;51.520;6.764;2023-10-19T01:20:26;99117.13;;;12.73
69785;BMP280;14177;51.520;6.764;2023-10-19T01:22:58;99121.47;;;12.73
69785;BMP280;14177;51.520;6.764;2023-10-19T01:25:47;99129.09;;;12.76
69785;BMP280;14177;51.520;6.764;2023-10-19T01:28:33;99122.03;;;12.78
69785;BMP280;14177;51.520;6.764;2023-10-19T01:31:15;99130.56;;;12.80
69785;BMP280;14177;51.520;6.764;2023-10-19T01:33:56;99127.84;;;12.81
69785;BMP280;14177;51.520;6.764;2023-10-19T01:36:25;99139.88;;;12.84
69785;BMP280;14177;51.520;6.764;2023-10-19T01:38:57;99135.38;;;12.86
69785;BMP280;14177;51.520;6.764;2023-10-19T01:41:28;99130.06;;;12.87
69785;BMP280;14177;51.520;6.764;2023-10-19T01:43:58;99125.69;;;12.88
69785;BMP280;14177;51.520;6.764;2023-10-19T01:46:33;99122.97;;;12.89
69785;BMP280;14177;51.520;6.764;2023-10-19T01:49:03;99132.47;;;12.90
69785;BMP280;14177;51.520;6.764;2023-10-19T01:51:33;99126.28;;;12.93
69785;BMP280;14177;51.520;6.764;2023-10-19T01:54:06;99119.91;;;12.97
69785;BMP280;14177;51.520;6.764;2023-10-19T01:56:34;99120.66;;;12.99
69785;BMP280;14177;51.520;6.764;2023-10-19T01:59:04;99114.50;;;13.00
69785;BMP280;14177;51.520;6.764;2023-10-19T02:01:32;99120.44;;;13.02
69785;BMP280;14177;51.520;6.764;2023-10-19T02:04:04;99117.66;;;13.05
69785;BMP280;14177;51.520;6.764;2023-10-19T02:06:34;99112.44;;;13.05
69785;BMP280;14177;51.520;6.764;2023-10-19T02:09:11;99110.44;;;13.08
69785;BMP280;14177;51.520;6.764;2023-10-19T02:11:50;99097.31;;;13.10
69785;BMP280;14177;51.520;6.764;2023-10-19T02:14:20;99102.31;;;13.13
69785;BMP280;14177;51.520;6.764;2023-10-19T02:16:53;99096.16;;;13.14
69785;BMP280;14177;51.520;6.764;2023-10-19T02:19:25;99100.34;;;13.16
69785;BMP280;14177;51.520;6.764;2023-10-19T02:21:59;99095.94;;;13.17
69785;BMP280;14177;51.520;6.764;2023-10-19T02:24:27;99103.56;;;13.20
69785;BMP280;14177;51.520;6.764;2023-10-19T02:26:58;99100.75;;;13.23
69785;BMP280;14177;51.520;6.764;2023-10-19T02:29:25;99090.31;;;13.23
69785;BMP280;14177;51.520;6.764;2023-10-19T02:31:55;99099.00;;;13.23
69785;BMP280;14177;51.520;6.764;2023-10-19T02:34:23;99097.22;;;13.24
69785;BMP280;14177;51.520;6.764;2023-10-19T02:36:51;99088.44;;;13.25
69785;BMP280;14177;51.520;6.764;2023-10-19T02:39:18;99095.34;;;13.26
69785;BMP280;14177;51.520;6.764;2023-10-19T02:41:48;99078.66;;;13.28
69785;BMP280;14177;51.520;6.764;2023-10-19T02:44:20;99092.53;;;13.29
69785;BMP280;14177;51.520;6.764;2023-10-19T02:46:55;99081.16;;;13.30
69785;BMP280;14177;51.520;6.764;2023-10-19T02:49:28;99085.22;;;13.33
69785;BMP280;14177;51.520;6.764;2023-10-19T02:51:57;99074.91;;;13.32
69785;BMP280;14177;51.520;6.764;2023-10-19T02:54:31;99076.47;;;13.34
69785;BMP280;14177;51.520;6.764;2023-10-19T02:57:03;99074.69;;;13.35
69785;BMP280;14177;51.520;6.764;2023-10-19T02:59:34;99074.69;;;13.35
69785;BMP280;14177;51.520;6.764;2023-10-19T03:02:02;99071.03;;;13.37
69785;BMP280;14177;51.520;6.764;2023-10-19T03:04:34;99076.91;;;13.41
69785;BMP280;14177;51.520;6.764;2023-10-19T03:07:04;99071.56;;;13.42
69785;BMP280;14177;51.520;6.764;2023-10-19T03:09:31;99069.59;;;13.46
69785;BMP280;14177;51.520;6.764;2023-10-19T03:12:03;99076.47;;;13.47
69785;BMP280;14177;51.520;6.764;2023-10-19T03:14:32;99066.44;;;13.53
69785;BMP280;14177;51.520;6.764;2023-10-19T03:17:00;99071.31;;;13.58
69785;BMP280;14177;51.520;6.764;2023-10-19T03:19:27;99071.97;;;13.61
69785;BMP280;14177;51.520;6.764;2023-10-19T03:21:55;99066.53;;;13.64
69785;BMP280;14177;51.520;6.764;2023-10-19T03:24:26;99065.38;;;13.68
69785;BMP280;14177;51.520;6.764;2023-10-19T03:27:09;99076.00;;;13.78
69785;BMP280;14177;51.520;6.764;2023-10-19T03:29:41;99074.97;;;13.80
69785;BMP280;14177;51.520;6.764;2023-10-19T03:32:14;99070.47;;;13.82
69785;BMP280;14177;51.520;6.764;2023-10-19T03:34:44;99067.63;;;13.85
69785;BMP280;14177;51.520;6.764;2023-10-19T03:37:14;99065.94;;;13.84
69785;BMP280;14177;51.520;6.764;2023-10-19T03:39:42;99068.34;;;13.87
69785;BMP280;14177;51.520;6.764;2023-10-19T03:42:12;99057.91;;;13.87
69785;BMP280;14177;51.520;6.764;2023-10-19T03:44:42;99061.25;;;13.89
69785;BMP280;14177;51.520;6.764;2023-10-19T03:47:16;99056.03;;;13.89
69785;BMP280;14177;51.520;6.764;2023-10-19T03:49:47;99052.47;;;13.90
69785;BMP280;14177;51.520;6.764;2023-10-19T03:52:14;99047.38;;;13.89
69785;BMP280;14177;51.520;6.764;2023-10-19T03:54:46;99057.69;;;13.90
69785;BMP280;14177;51.520;6.764;2023-10-19T03:57:21;99049.13;;;13.88
69785;BMP280;14177;51.520;6.764;2023-10-19T03:59:52;99048.31;;;13.88
69785;BMP280;14177;51.520;6.764;2023-10-19T04:02:27;99051.75;;;13.88
69785;BMP280;14177;51.520;6.764;2023-10-19T04:05:06;99054.34;;;13.88
69785;BMP280;14177;51.520;6.764;2023-10-19T04:07:36;99050.00;;;13.89
69785;BMP280;14177;51.520;6.764;2023-10-19T04:10:03;99039.53;;;13.89
69785;BMP280;14177;51.520;6.764;2023-10-19T04:12:39;99033.25;;;13.91
69785;BMP280;14177;51.520;6.764;2023-10-19T04:15:10;99033.25;;;13.91
69785;BMP280;14177;51.520;6.764;2023-10-19T04:17:45;99032.31;;;13.92
69785;BMP280;14177;51.520;6.764;2023-10-19T04:20:15;99029.72;;;13.92
69785;BMP280;14177;51.520;6.764;2023-10-19T04:22:50;99028.88;;;13.92
69785;BMP280;14177;51.520;6.764;2023-10-19T04:25:18;99031.50;;;13.92
69785;BMP280;14177;51.520;6.764;2023-10-19T04:27:47;99016.78;;;13.91
69785;BMP280;14177;51.520;6.764;2023-10-19T04:30:16;99034.00;;;13.93
69785;BMP280;14177;51.520;6.764;2023-10-19T04:32:45;99020.13;;;13.93
69785;BMP280;14177;51.520;6.764;2023-10-19T04:35:13;99024.50;;;13.92
69785;BMP280;14177;51.520;6.764;2023-10-19T04:37:41;99023.66;;;13.92
69785;BMP280;14177;51.520;6.764;2023-10-19T04:40:11;99032.31;;;13.92
69785;BMP280;14177;51.520;6.764;2023-10-19T04:42:38;99033.03;;;13.94
69785;BMP280;14177;51.520;6.764;2023-10-19T04:45:06;99028.56;;;13.96
69785;BMP280;14177;51.520;6.764;2023-10-19T04:47:34;99025.94;;;13.96
69785;BMP280;14177;51.520;6.764;2023-10-19T04:50:04;99034.50;;;13.98
69785;BMP280;14177;51.520;6.764;2023-10-19T04:52:31;99030.94;;;13.99
69785;BMP280;14177;51.520;6.764;2023-10-19T04:54:59;99029.28;;;13.98
69785;BMP280;14177;51.520;6.764;2023-10-19T04:57:28;99034.28;;;14.01
69785;BMP280;14177;51.520;6.764;2023-10-19T04:59:55;99028.03;;;14.04
69785;BMP280;14177;51.520;6.764;2023-10-19T05:02:22;99034.06;;;14.04
69785;BMP280;14177;51.520;6.764;2023-10-19T05:04:49;99036.44;;;14.07
69785;BMP280;14177;51.520;6.764;2023-10-19T05:07:16;99035.41;;;14.10
69785;BMP280;14177;51.520;6.764;2023-10-19T05:09:45;99031.00;;;14.10
69785;BMP280;14177;51.520;6.764;2023-10-19T05:12:14;99030.91;;;14.12
69785;BMP280;14177;51.520;6.764;2023-10-19T05:14:42;99036.13;;;14.12
69785;BMP280;14177;51.520;6.764;2023-10-19T05:17:10;99042.31;;;14.11
69785;BMP280;14177;51.520;6.764;2023-10-19T05:19:41;99037.91;;;14.11
69785;BMP280;14177;51.520;6.764;2023-10-19T05:22:09;99042.19;;;14.12
69785;BMP280;14177;51.520;6.764;2023-10-19T05:24:36;99043.03;;;14.13
69785;BMP280;14177;51.520;6.764;2023-10-19T05:27:03;99037.81;;;14.13
69785;BMP280;14177;51.520;6.764;2023-10-19T05:29:32;99038.63;;;14.13
69785;BMP280;14177;51.520;6.764;2023-10-19T05:32:03;99037.91;;;14.11
69785;BMP280;14177;51.520;6.764;2023-10-19T05:34:30;99035.19;;;14.13
69785;BMP280;14177;51.520;6.764;2023-10-19T05:36:59;99040.50;;;14.11
69785;BMP280;14177;51.520;6.764;2023-10-19T05:39:29;99044.06;;;14.10
69785;BMP280;14177;51.520;6.764;2023-10-19T05:41:58;99038.84;;;14.10
69785;BMP280;14177;51.520;6.764;2023-10-19T05:44:31;99039.06;;;14.07
69785;BMP280;14177;51.520;6.764;2023-10-19T05:46:58;99048.78;;;14.05
69785;BMP280;14177;51.520;6.764;2023-10-19T05:49:26;99048.91;;;14.04
69785;BMP280;14177;51.520;6.764;2023-10-19T05:51:56;99048.06;;;14.03
69785;BMP280;14177;51.520;6.764;2023-10-19T05:54:23;99047.44;;;14.00
69785;BMP280;14177;51.520;6.764;2023-10-19T05:56:51;99053.72;;;13.97
69785;BMP280;14177;51.520;6.764;2023-10-19T05:59:19;99046.09;;;13.94
69785;BMP280;14177;51.520;6.764;2023-10-19T06:01:47;99047.03;;;13.93
69785;BMP280;14177;51.520;6.764;2023-10-19T06:04:15;99056.66;;;13.93
69785;BMP280;14177;51.520;6.764;2023-10-19T06:06:47;99062.91;;;13.90
69785;BMP280;14177;51.520;6.764;2023-10-19T06:09:16;99064.56;;;13.91
69785;BMP280;14177;51.520;6.764;2023-10-19T06:11:44;99061.03;;;13.92
69785;BMP280;14177;51.520;6.764;2023-10-19T06:14:11;99069.59;;;13.94
69785;BMP280;14177;51.520;6.764;2023-10-19T06:16:38;99078.03;;;13.98
69785;BMP280;14177;51.520;6.764;2023-10-19T06:19:05;99077.94;;;13.99
69785;BMP280;14177;51.520;6.764;2023-10-19T06:21:32;99063.00;;;14.01
69785;BMP280;14177;51.520;6.764;2023-10-19T06:24:01;99078.34;;;14.06
69785;BMP280;14177;51.520;6.764;2023-10-19T06:26:29;99068.72;;;14.06
69785;BMP280;14177;51.520;6.764;2023-10-19T06:28:56;99067.91;;;14.06
69785;BMP280;14177;51.520;6.764;2023-10-19T06:31:27;99077.50;;;14.05
69785;BMP280;14177;51.520;6.764;2023-10-19T06:33:56;99080.81;;;14.07
69785;BMP280;14177;51.520;6.764;2023-10-19T06:36:28;99086.03;;;14.07
69785;BMP280;14177;51.520;6.764;2023-10-19T06:38:58;99087.00;;;14.06
69785;BMP280;14177;51.520;6.764;2023-10-19T06:41:25;99085.09;;;14.08
69785;BMP280;14177;51.520;6.764;2023-10-19T06:43:52;99082.50;;;14.08
69785;BMP280;14177;51.520;6.764;2023-10-19T06:46:19;99087.72;;;14.08
69785;BMP280;14177;51.520;6.764;2023-10-19T06:48:48;99086.69;;;14.11
69785;BMP280;14177;51.520;6.764;2023-10-19T06:51:15;99091.72;;;14.14
69785;BMP280;14177;51.520;6.764;2023-10-19T06:53:43;99089.94;;;14.14
69785;BMP280;14177;51.520;6.764;2023-10-19T06:56:10;99084.72;;;14.14
69785;BMP280;14177;51.520;6.764;2023-10-19T06:58:37;99093.38;;;14.15
69785;BMP280;14177;51.520;6.764;2023-10-19T07:01:08;99102.03;;;14.15
69785;BMP280;14177;51.520;6.764;2023-10-19T07:03:36;99093.25;;;14.16
69785;BMP280;14177;51.520;6.764;2023-10-19T07:06:03;99100.16;;;14.17
69785;BMP280;14177;51.520;6.764;2023-10-19T07:08:35;99093.03;;;14.19
69785;BMP280;14177;51.520;6.764;2023-10-19T07:11:02;99104.34;;;14.20
69785;BMP280;14177;51.520;6.764;2023-10-19T07:13:30;99101.59;;;14.21
69785;BMP280;14177;51.520;6.764;2023-10-19T07:16:01;99095.22;;;14.25
69785;BMP280;14177;51.520;6.764;2023-10-19T07:18:30;99099.38;;;14.28
69785;BMP280;14177;51.520;6.764;2023-10-19T07:20:57;99096.66;;;14.29
69785;BMP280;14177;51.520;6.764;2023-10-19T07:23:31;99097.41;;;14.31
69785;BMP280;14177;51.520;6.764;2023-10-19T07:25:58;99095.50;;;14.33
69785;BMP280;14177;51.520;6.764;2023-10-19T07:28:28;99094.56;;;14.34
69785;BMP280;14177;51.520;6.764;2023-10-19T07:30:57;99104.06;;;14.35
69785;BMP280;14177;51.520;6.764;2023-10-19T07:33:24;99107.28;;;14.39
69785;BMP280;14177;51.520;6.764;2023-10-19T07:35:51;99107.19;;;14.40
69785;BMP280;14177;51.520;6.764;2023-10-19T07:38:23;99106.03;;;14.44
69785;BMP280;14177;51.520;6.764;2023-10-19T07:40:50;99117.06;;;14.48
69785;BMP280;14177;51.520;6.764;2023-10-19T07:43:21;99107.13;;;14.53
69785;BMP280;14177;51.520;6.764;2023-10-19T07:45:49;99115.59;;;14.56
69785;BMP280;14177;51.520;6.764;2023-10-19T07:48:17;99114.38;;;14.60
69785;BMP280;14177;51.520;6.764;2023-10-19T07:50:44;99104.44;;;14.65
69785;BMP280;14177;51.520;6.764;2023-10-19T07:53:11;99112.78;;;14.70
69785;BMP280;14177;51.520;6.764;2023-10-19T07:55:39;99103.03;;;14.72
69785;BMP280;14177;51.520;6.764;2023-10-19T07:58:07;99113.28;;;14.75
69785;BMP280;14177;51.520;6.764;2023-10-19T08:00:34;99110.44;;;14.78
69785;BMP280;14177;51.520;6.764;2023-10-19T08:03:03;99112.72;;;14.82
69785;BMP280;14177;51.520;6.764;2023-10-19T08:05:33;99094.06;;;14.87
69785;BMP280;14177;51.520;6.764;2023-10-19T08:08:03;99095.53;;;14.91
69785;BMP280;14177;51.520;6.764;2023-10-19T08:10:33;99099.44;;;14.96
69785;BMP280;14177;51.520;6.764;2023-10-19T08:13:03;99102.47;;;15.03
69785;BMP280;14177;51.520;6.764;2023-10-19T08:15:31;99097.72;;;15.08
69785;BMP280;14177;51.520;6.764;2023-10-19T08:17:58;99096.41;;;15.13
69785;BMP280;14177;51.520;6.764;2023-10-19T08:20:25;99098.56;;;15.19
69785;BMP280;14177;51.520;6.764;2023-10-19T08:23:00;99098.03;;;15.27
69785;BMP280;14177;51.520;6.764;2023-10-19T08:25:32;99090.41;;;15.35
69785;BMP280;14177;51.520;6.764;2023-10-19T08:28:20;99097.47;;;15.45
69785;BMP280;14177;51.520;6.764;2023-10-19T08:30:47;99106.03;;;15.58
69785;BMP280;14177;51.520;6.764;2023-10-19T08:33:25;99099.97;;;15.69
69785;BMP280;14177;51.520;6.764;2023-10-19T08:35:54;99096.16;;;15.73
69785;BMP280;14177;51.520;6.764;2023-10-19T08:38:21;99090.69;;;15.76
69785;BMP280;14177;51.520;6.764;2023-10-19T08:40:49;99101.88;;;15.78
69785;BMP280;14177;51.520;6.764;2023-10-19T08:43:20;99103.56;;;15.79
69785;BMP280;14177;51.520;6.764;2023-10-19T08:45:48;99097.59;;;15.77
69785;BMP280;14177;51.520;6.764;2023-10-19T08:48:17;99094.03;;;15.78
69785;BMP280;14177;51.520;6.764;2023-10-19T08:50:44;99093.78;;;15.81
69785;BMP280;14177;51.520;6.764;2023-10-19T08:53:12;99082.38;;;15.82
69785;BMP280;14177;51.520;6.764;2023-10-19T08:55:43;99082.00;;;15.86
69785;BMP280;14177;51.520;6.764;2023-10-19T08:58:16;99090.47;;;15.89
69785;BMP280;14177;51.520;6.764;2023-10-19T09:00:46;99086.19;;;15.88
69785;BMP280;14177;51.520;6.764;2023-10-19T09:03:18;99091.16;;;15.91
69785;BMP280;14177;51.520;6.764;2023-10-19T09:05:46;99088.41;;;15.93
69785;BMP280;14177;51.520;6.764;2023-10-19T09:08:18;99078.66;;;15.95
69785;BMP280;14177;51.520;6.764;2023-10-19T09:10:49;99062.72;;;15.98
69785;BMP280;14177;51.520;6.764;2023-10-19T09:13:19;99060.69;;;16.01
69785;BMP280;14177;51.520;6.764;2023-10-19T09:15:48;99063.88;;;16.05
69785;BMP280;14177;51.520;6.764;2023-10-19T09:18:25;99070.41;;;16.10
69785;BMP280;14177;51.520;6.764;2023-10-19T09:20:57;99063.72;;;16.17
69785;BMP280;14177;51.520;6.764;2023-10-19T09:23:35;99058.47;;;16.28
69785;BMP280;14177;51.520;6.764;2023-10-19T09:26:03;99061.81;;;16.41
69785;BMP280;14177;51.520;6.764;2023-10-19T09:28:35;99072.97;;;16.54
69785;BMP280;14177;51.520;6.764;2023-10-19T09:31:03;99069.84;;;16.60
69785;BMP280;14177;51.520;6.764;2023-10-19T09:33:35;99061.34;;;16.68
69785;BMP280;14177;51.520;6.764;2023-10-19T09:36:03;99056.63;;;16.82
69785;BMP280;14177;51.520;6.764;2023-10-19T09:38:48;99063.22;;;16.97
69785;BMP280;14177;51.520;6.764;2023-10-19T09:41:18;99058.63;;;17.10
69785;BMP280;14177;51.520;6.764;2023-10-19T09:43:49;99054.53;;;17.17
69785;BMP280;14177;51.520;6.764;2023-10-19T09:46:26;99053.28;;;17.32
69785;BMP280;14177;51.520;6.764;2023-10-19T09:48:56;99044.75;;;17.49
69785;BMP280;14177;51.520;6.764;2023-10-19T09:51:23;99054.91;;;17.63
69785;BMP280;14177;51.520;6.764;2023-10-19T09:54:22;99064.78;;;17.70
69785;BMP280;14177;51.520;6.764;2023-10-19T09:57:10;99046.97;;;17.74
69785;BMP280;14177;51.520;6.764;2023-10-19T09:59:50;99050.97;;;17.78
69785;BMP280;14177;51.520;6.764;2023-10-19T10:02:20;99052.63;;;17.79
69785;BMP280;14177;51.520;6.764;2023-10-19T10:04:53;99051.81;;;17.78
69785;BMP280;14177;51.520;6.764;2023-10-19T10:07:20;99057.91;;;17.79
69785;BMP280;14177;51.520;6.764;2023-10-19T10:10:08;99054.47;;;17.88
69785;BMP280;14177;51.520;6.764;2023-10-19T10:12:35;99055.13;;;18.20
69785;BMP280;14177;51.520;6.764;2023-10-19T10:15:04;99033.75;;;18.71
69785;BMP280;14177;51.520;6.764;2023-10-19T10:17:39;99042.25;;;19.30
69785;BMP280;14177;51.520;6.764;2023-10-19T10:23:19;99045.25;;;20.70
69785;BMP280;14177;51.520;6.764;2023-10-19T10:25:52;99036.91;;;20.91
69785;BMP280;14177;51.520;6.764;2023-10-19T10:28:21;99035.69;;;21.03
69785;BMP280;14177;51.520;6.764;2023-10-19T10:31:26;99039.72;;;21.41
69785;BMP280;14177;51.520;6.764;2023-10-19T10:33:54;99029.47;;;21.63
69785;BMP280;14177;51.520;6.764;2023-10-19T10:36:22;99044.78;;;21.85
69785;BMP280;14177;51.520;6.764;2023-10-19T10:38:51;99025.34;;;22.02
69785;BMP280;14177;51.520;6.764;2023-10-19T10:41:25;99020.91;;;22.03
69785;BMP280;14177;51.520;6.764;2023-10-19T10:43:57;99022.16;;;21.91
69785;BMP280;14177;51.520;6.764;2023-10-19T10:46:27;99015.53;;;21.87
69785;BMP280;14177;51.520;6.764;2023-10-19T10:48:56;99013.75;;;21.95
69785;BMP280;14177;51.520;6.764;2023-10-19T10:51:27;99019.22;;;21.94
69785;BMP280;14177;51.520;6.764;2023-10-19T10:53:58;99018.84;;;21.89
69785;BMP280;14177;51.520;6.764;2023-10-19T10:56:25;99020.03;;;21.94
69785;BMP280;14177;51.520;6.764;2023-10-19T10:58:52;99006.13;;;21.92
69785;BMP280;14177;51.520;6.764;2023-10-19T11:01:33;99022.66;;;21.94
69785;BMP280;14177;51.520;6.764;2023-10-19T11:04:08;99014.66;;;22.27
69785;BMP280;14177;51.520;6.764;2023-10-19T11:06:54;99002.34;;;22.68
69785;BMP280;14177;51.520;6.764;2023-10-19T11:09:24;99005.00;;;22.76
69785;BMP280;14177;51.520;6.764;2023-10-19T11:11:51;99001.69;;;22.90
69785;BMP280;14177;51.520;6.764;2023-10-19T11:14:21;99003.84;;;22.94
69785;BMP280;14177;51.520;6.764;2023-10-19T11:16:52;98999.38;;;22.79
69785;BMP280;14177;51.520;6.764;2023-10-19T11:19:19;99006.47;;;22.54
69785;BMP280;14177;51.520;6.764;2023-10-19T11:21:54;99001.34;;;22.45
69785;BMP280;14177;51.520;6.764;2023-10-19T11:24:27;98997.06;;;22.84
69785;BMP280;14177;51.520;6.764;2023-10-19T11:26:57;98994.75;;;23.21
69785;BMP280;14177;51.520;6.764;2023-10-19T11:29:24;98987.38;;;23.46
69785;BMP280;14177;51.520;6.764;2023-10-19T11:32:01;98985.22;;;23.50
69785;BMP280;14177;51.520;6.764;2023-10-19T11:34:29;98973.72;;;23.65
69785;BMP280;14177;51.520;6.764;2023-10-19T11:36:58;98970.47;;;23.47
69785;BMP280;14177;51.520;6.764;2023-10-19T11:39:27;98966.19;;;23.38
69785;BMP280;14177;51.520;6.764;2023-10-19T11:41:55;98965.63;;;23.13
69785;BMP280;14177;51.520;6.764;2023-10-19T11:44:22;98955.69;;;22.99
69785;BMP280;14177;51.520;6.764;2023-10-19T11:46:49;98960.66;;;22.94
69785;BMP280;14177;51.520;6.764;2023-10-19T11:49:17;98955.03;;;22.81
69785;BMP280;14177;51.520;6.764;2023-10-19T11:51:44;98957.22;;;22.53
69785;BMP280;14177;51.520;6.764;2023-10-19T11:54:11;98950.03;;;22.22
69785;BMP280;14177;51.520;6.764;2023-10-19T11:56:39;98942.41;;;22.03
69785;BMP280;14177;51.520;6.764;2023-10-19T11:59:08;98945.34;;;21.84
69785;BMP280;14177;51.520;6.764;2023-10-19T12:01:35;98940.69;;;21.70
69785;BMP280;14177;51.520;6.764;2023-10-19T12:04:03;98950.84;;;21.57
69785;BMP280;14177;51.520;6.764;2023-10-19T12:06:32;98964.94;;;21.40
69785;BMP280;14177;51.520;6.764;2023-10-19T12:08:59;98957.28;;;21.29
69785;BMP280;14177;51.520;6.764;2023-10-19T12:11:32;98956.44;;;21.21
69785;BMP280;14177;51.520;6.764;2023-10-19T12:13:59;98950.25;;;21.04
69785;BMP280;14177;51.520;6.764;2023-10-19T12:16:30;98950.28;;;20.87
69785;BMP280;14177;51.520;6.764;2023-10-19T12:18:58;98949.19;;;20.72
69785;BMP280;14177;51.520;6.764;2023-10-19T12:21:25;98945.38;;;20.75
69785;BMP280;14177;51.520;6.764;2023-10-19T12:23:54;98944.25;;;20.77
69785;BMP280;14177;51.520;6.764;2023-10-19T12:26:24;98942.00;;;20.82
69785;BMP280;14177;51.520;6.764;2023-10-19T12:28:51;98947.44;;;20.81
69785;BMP280;14177;51.520;6.764;2023-10-19T12:31:18;98947.72;;;20.78
69785;BMP280;14177;51.520;6.764;2023-10-19T12:33:46;98946.53;;;20.72
69785;BMP280;14177;51.520;6.764;2023-10-19T12:36:13;98956.34;;;20.62
69785;BMP280;14177;51.520;6.764;2023-10-19T12:38:55;98950.78;;;20.48
69785;BMP280;14177;51.520;6.764;2023-10-19T12:41:24;98953.81;;;20.35
69785;BMP280;14177;51.520;6.764;2023-10-19T12:43:51;98951.94;;;20.28
69785;BMP280;14177;51.520;6.764;2023-10-19T12:46:21;98948.97;;;20.13
69785;BMP280;14177;51.520;6.764;2023-10-19T12:48:52;98945.31;;;19.97
69785;BMP280;14177;51.520;6.764;2023-10-19T12:51:19;98946.38;;;19.86
69785;BMP280;14177;51.520;6.764;2023-10-19T12:53:54;98944.75;;;19.76
69785;BMP280;14177;51.520;6.764;2023-10-19T12:56:22;98948.66;;;19.72
69785;BMP280;14177;51.520;6.764;2023-10-19T12:58:55;98947.97;;;19.70
69785;BMP280;14177;51.520;6.764;2023-10-19T13:01:22;98941.75;;;19.71
69785;BMP280;14177;51.520;6.764;2023-10-19T13:03:50;98934.50;;;19.73
69785;BMP280;14177;51.520;6.764;2023-10-19T13:06:18;98928.56;;;19.71
69785;BMP280;14177;51.520;6.764;2023-10-19T13:08:46;98936.75;;;19.68
69785;BMP280;14177;51.520;6.764;2023-10-19T13:11:13;98938.06;;;19.64
69785;BMP280;14177;51.520;6.764;2023-10-19T13:13:45;98931.28;;;19.61
69785;BMP280;14177;51.520;6.764;2023-10-19T13:16:15;98923.25;;;19.63
69785;BMP280;14177;51.520;6.764;2023-10-19T13:18:43;98930.47;;;19.61
69785;BMP280;14177;51.520;6.764;2023-10-19T13:21:11;98931.44;;;19.60
69785;BMP280;14177;51.520;6.764;2023-10-19T13:23:48;98932.41;;;19.59
69785;BMP280;14177;51.520;6.764;2023-10-19T13:26:15;98931.34;;;19.52
69785;BMP280;14177;51.520;6.764;2023-10-19T13:28:44;98926.38;;;19.49
69785;BMP280;14177;51.520;6.764;2023-10-19T13:31:11;98917.78;;;19.47
69785;BMP280;14177;51.520;6.764;2023-10-19T13:33:42;98920.31;;;19.39
69785;BMP280;14177;51.520;6.764;2023-10-19T13:36:10;98920.91;;;19.33
69785;BMP280;14177;51.520;6.764;2023-10-19T13:38:38;98918.84;;;19.27
69785;BMP280;14177;51.520;6.764;2023-10-19T13:41:07;98928.28;;;19.20
69785;BMP280;14177;51.520;6.764;2023-10-19T13:43:39;98931.38;;;19.16
69785;BMP280;14177;51.520;6.764;2023-10-19T13:46:06;98924.69;;;19.12
69785;BMP280;14177;51.520;6.764;2023-10-19T13:48:34;98919.03;;;19.07
69785;BMP280;14177;51.520;6.764;2023-10-19T13:51:01;98918.19;;;19.06
69785;BMP280;14177;51.520;6.764;2023-10-19T13:53:32;98918.34;;;19.05
69785;BMP280;14177;51.520;6.764;2023-10-19T13:55:59;98911.56;;;19.02
69785;BMP280;14177;51.520;6.764;2023-10-19T13:58:26;98908.81;;;19.04
69785;BMP280;14177;51.520;6.764;2023-10-19T14:00:53;98900.91;;;19.04
69785;BMP280;14177;51.520;6.764;2023-10-19T14:03:20;98903.53;;;19.04
69785;BMP280;14177;51.520;6.764;2023-10-19T14:05:48;98894.41;;;18.98
69785;BMP280;14177;51.520;6.764;2023-10-19T14:08:17;98892.50;;;18.91
69785;BMP280;14177;51.520;6.764;2023-10-19T14:10:45;98897.25;;;18.87
69785;BMP280;14177;51.520;6.764;2023-10-19T14:13:13;98883.00;;;18.80
69785;BMP280;14177;51.520;6.764;2023-10-19T14:15:41;98881.91;;;18.73
69785;BMP280;14177;51.520;6.764;2023-10-19T14:18:09;98872.94;;;18.66
69785;BMP280;14177;51.520;6.764;2023-10-19T14:20:38;98869.06;;;18.61
69785;BMP280;14177;51.520;6.764;2023-10-19T14:23:07;98873.78;;;18.57
69785;BMP280;14177;51.520;6.764;2023-10-19T14:25:38;98869.09;;;18.51
69785;BMP280;14177;51.520;6.764;2023-10-19T14:28:09;98866.06;;;18.46
69785;BMP280;14177;51.520;6.764;2023-10-19T14:30:37;98860.28;;;18.43